Time,TemperatureF,DewpointF,PressureIn,WindDirection,WindDirectionDegrees,WindSpeedMPH,WindSpeedGustMPH,Humidity,HourlyPrecipIn,Conditions,Clouds,dailyrainin,SolarRadiationWatts/m^2,SoftwareType,DateUTC
2013-05-27 00:04:00,58.8,58.0,30.00,ESE,107,0.6,3.5,97,0.00,OVC,,0.00,0.0,WeatherDisplay:10.37,2013-05-27 05:04:00,
2013-05-27 00:10:00,58.8,58.0,30.00,North,360,0.7,3.5,97,0.00,OVC,,0.00,0.0,WeatherDisplay:10.37,2013-05-27 05:10:00,
2013-05-27 00:15:00,58.8,58.0,30.00,NE,42,0.6,3.5,97,0.00,OVC,,0.00,0.0,WeatherDisplay:10.37,2013-05-27 05:15:00,
2013-05-27 00:20:00,58.9,58.1,30.01,NE,40,1.4,6.0,97,0.00,OVC,,0.00,0.0,WeatherDisplay:10.37,2013-05-27 05:20:00,
2013-05-27 00:25:00,58.9,58.1,30.00,North,5,0.8,8.1,97,0.00,OVC,,0.00,0.0,WeatherDisplay:10.37,2013-05-27 05:25:00,
2013-05-27 00:31:00,58.9,58.1,29.99,ESE,122,0.1,3.5,97,0.00,OVC,,0.00,0.0,WeatherDisplay:10.37,2013-05-27 05:31:00,
2013-05-27 00:36:00,58.9,58.1,29.99,ESE,109,1.5,9.2,97,0.00,OVC,,0.00,0.0,WeatherDisplay:10.37,2013-05-27 05:36:00,
2013-05-27 00:41:00,58.9,58.1,30.00,ESE,109,0.3,0.0,97,0.00,OVC,,0.00,0.0,WeatherDisplay:10.37,2013-05-27 05:41:00,
2013-05-27 00:46:00,58.9,58.1,30.00,NNW,348,0.0,3.5,97,0.00,OVC,,0.00,0.0,WeatherDisplay:10.37,2013-05-27 05:46:00,
2013-05-27 00:52:00,59.0,58.2,29.99,East,98,1.0,3.0,97,0.00,OVC,OVC,0.00,0.0,WeatherDisplay:10.37,2013-05-27 05:52:00,
2013-05-27 00:57:00,59.0,58.2,29.99,North,9,0.0,0.0,97,0.00,OVC,,0.00,0.0,WeatherDisplay:10.37,2013-05-27 05:57:00,
2013-05-27 01:02:00,59.1,58.2,29.98,North,9,0.0,4.0,97,0.00,-RA,-RA,0.00,0.0,WeatherDisplay:10.37,2013-05-27 06:02:00,
2013-05-27 01:07:00,59.1,58.2,29.97,NW,306,1.8,5.8,97,0.00,-RA,,0.00,0.0,WeatherDisplay:10.37,2013-05-27 06:07:00,
2013-05-27 01:12:00,59.1,58.2,29.97,NE,40,0.0,1.2,97,0.00,-RA,,0.00,0.0,WeatherDisplay:10.37,2013-05-27 06:12:00,
2013-05-27 01:17:00,59.1,58.2,29.97,NNE,30,0.9,3.5,97,0.00,-RA,,0.00,0.0,WeatherDisplay:10.37,2013-05-27 06:17:00,
2013-05-27 01:22:00,59.1,58.2,29.97,North,5,0.0,0.0,97,0.00,-RA,,0.00,0.0,WeatherDisplay:10.37,2013-05-27 06:22:00,
2013-05-27 01:28:00,59.2,58.3,29.97,NE,34,0.0,0.0,97,0.00,-RA,,0.00,0.0,WeatherDisplay:10.37,2013-05-27 06:28:00,
2013-05-27 01:33:00,59.2,58.3,29.96,NE,51,0.0,0.0,97,0.00,-RA,,0.00,0.0,WeatherDisplay:10.37,2013-05-27 06:33:00,
2013-05-27 01:38:00,59.2,58.3,29.96,SSW,207,0.0,0.0,97,0.00,-RA,,0.00,0.0,WeatherDisplay:10.37,2013-05-27 06:38:00,
2013-05-27 01:43:00,59.3,58.4,29.96,NNE,28,0.0,3.5,97,0.00,-RA,,0.00,0.0,WeatherDisplay:10.37,2013-05-27 06:43:00,
2013-05-27 01:49:00,59.4,58.5,29.96,NNE,19,0.5,2.3,97,0.00,-RA,,0.00,0.0,WeatherDisplay:10.37,2013-05-27 06:49:00,
2013-05-27 01:54:00,59.4,58.5,29.98,West,275,0.0,3.5,97,0.00,-RA,,0.00,0.0,WeatherDisplay:10.37,2013-05-27 06:54:00,
2013-05-27 01:59:00,59.4,58.5,29.98,NNE,13,1.0,3.5,97,0.00,-RA,,0.00,0.0,WeatherDisplay:10.37,2013-05-27 06:59:00,
2013-05-27 02:05:00,59.5,58.6,29.98,NE,34,0.0,1.2,97,0.00,OVC,,0.00,0.0,WeatherDisplay:10.37,2013-05-27 07:05:00,
2013-05-27 02:10:00,59.5,58.6,29.97,NNW,334,1.3,3.5,97,0.00,OVC,,0.00,0.0,WeatherDisplay:10.37,2013-05-27 07:10:00,
2013-05-27 02:15:00,59.5,58.6,29.97,NNE,33,0.1,2.3,97,0.00,OVC,,0.00,0.0,WeatherDisplay:10.37,2013-05-27 07:15:00,
2013-05-27 02:20:00,59.5,58.6,29.96,North,360,0.0,3.5,97,0.00,OVC,,0.00,0.0,WeatherDisplay:10.37,2013-05-27 07:20:00,
2013-05-27 02:26:00,59.6,58.7,29.96,NE,37,0.4,3.5,97,0.00,OVC,,0.00,0.0,WeatherDisplay:10.37,2013-05-27 07:26:00,
2013-05-27 02:31:00,59.6,58.7,29.96,NNE,16,2.1,4.6,97,0.00,OVC,,0.00,0.0,WeatherDisplay:10.37,2013-05-27 07:31:00,
2013-05-27 02:36:00,59.5,58.6,29.96,NE,35,0.5,4.0,97,0.00,OVC,,0.00,0.0,WeatherDisplay:10.37,2013-05-27 07:36:00,
2013-05-27 02:41:00,59.5,58.6,29.96,NE,39,0.8,3.5,97,0.00,OVC,,0.00,0.0,WeatherDisplay:10.37,2013-05-27 07:41:00,
2013-05-27 02:47:00,59.4,58.5,29.95,North,360,1.3,4.6,97,0.00,OVC,,0.00,0.0,WeatherDisplay:10.37,2013-05-27 07:47:00,
2013-05-27 02:52:00,59.4,58.5,29.95,North,7,2.0,6.0,97,0.00,OVC,OVC,0.00,0.0,WeatherDisplay:10.37,2013-05-27 07:52:00,
2013-05-27 02:57:00,59.3,58.4,29.95,NE,54,0.0,4.0,97,0.00,OVC,OVC,0.00,0.0,WeatherDisplay:10.37,2013-05-27 07:57:00,
2013-05-27 03:02:00,59.3,58.4,29.94,NNE,28,1.5,4.6,97,0.00,OVC,,0.00,0.0,WeatherDisplay:10.37,2013-05-27 08:02:00,
2013-05-27 03:07:00,59.2,58.3,29.93,NNE,26,0.0,4.0,97,0.00,OVC,OVC,0.00,0.0,WeatherDisplay:10.37,2013-05-27 08:07:00,
2013-05-27 03:12:00,59.2,58.3,29.93,NNE,31,1.0,5.0,97,0.00,OVC,OVC,0.00,0.0,WeatherDisplay:10.37,2013-05-27 08:12:00,
2013-05-27 03:17:00,59.2,58.3,29.92,NE,55,2.0,7.0,97,0.00,OVC,OVC,0.00,0.0,WeatherDisplay:10.37,2013-05-27 08:17:00,
2013-05-27 03:22:00,59.2,58.3,29.91,ENE,69,0.3,2.3,97,0.00,OVC,,0.00,0.0,WeatherDisplay:10.37,2013-05-27 08:22:00,
2013-05-27 03:27:00,59.2,58.3,29.91,NNE,30,0.1,5.8,97,0.00,OVC,,0.00,0.0,WeatherDisplay:10.37,2013-05-27 08:27:00,
2013-05-27 03:32:00,59.3,58.4,29.91,ESE,103,0.7,2.3,97,0.00,OVC,,0.00,0.0,WeatherDisplay:10.37,2013-05-27 08:32:00,
2013-05-27 03:38:00,59.3,58.4,29.91,SSE,148,0.2,2.3,97,0.00,OVC,,0.00,0.0,WeatherDisplay:10.37,2013-05-27 08:38:00,
2013-05-27 03:43:00,59.3,58.4,29.91,ENE,61,0.0,0.0,97,0.00,OVC,,0.00,0.0,WeatherDisplay:10.37,2013-05-27 08:43:00,
2013-05-27 03:48:00,59.4,58.5,29.91,SE,143,2.2,4.6,97,0.00,OVC,,0.00,0.0,WeatherDisplay:10.37,2013-05-27 08:48:00,
2013-05-27 03:53:00,59.4,58.5,29.90,SE,138,0.0,3.5,97,0.00,OVC,,0.00,0.0,WeatherDisplay:10.37,2013-05-27 08:53:00,
2013-05-27 03:59:00,59.4,58.5,29.90,East,81,1.1,3.5,97,0.00,OVC,,0.00,0.0,WeatherDisplay:10.37,2013-05-27 08:59:00,
2013-05-27 04:04:00,59.4,58.5,29.90,SE,135,0.6,2.3,97,0.00,OVC,,0.00,0.0,WeatherDisplay:10.37,2013-05-27 09:04:00,
2013-05-27 04:09:00,59.4,58.5,29.90,ENE,77,0.8,2.3,97,0.00,OVC,,0.00,0.0,WeatherDisplay:10.37,2013-05-27 09:09:00,
2013-05-27 04:14:00,59.4,58.5,29.90,ESE,113,0.6,3.5,97,0.00,OVC,,0.00,0.0,WeatherDisplay:10.37,2013-05-27 09:14:00,
2013-05-27 04:20:00,59.5,58.6,29.91,SE,136,0.0,0.0,97,0.00,OVC,,0.00,0.0,WeatherDisplay:10.37,2013-05-27 09:20:00,
2013-05-27 04:25:00,59.4,58.5,29.90,ESE,103,0.9,2.0,97,0.00,OVC,,0.00,0.0,WeatherDisplay:10.37,2013-05-27 09:25:00,
2013-05-27 04:30:00,59.4,58.5,29.90,SSE,155,1.0,2.3,97,0.00,OVC,,0.00,0.0,WeatherDisplay:10.37,2013-05-27 09:30:00,
2013-05-27 04:35:00,59.4,58.5,29.90,SSE,148,0.6,3.5,97,0.00,OVC,,0.00,0.0,WeatherDisplay:10.37,2013-05-27 09:35:00,
2013-05-27 04:41:00,59.4,58.5,29.90,East,92,1.1,4.6,97,0.00,OVC,,0.00,0.0,WeatherDisplay:10.37,2013-05-27 09:41:00,
2013-05-27 04:46:00,59.4,58.5,29.90,SE,142,0.4,2.3,97,0.00,OVC,,0.00,0.0,WeatherDisplay:10.37,2013-05-27 09:46:00,
2013-05-27 04:51:00,59.4,58.5,29.90,ESE,120,0.8,3.5,97,0.00,OVC,,0.00,0.0,WeatherDisplay:10.37,2013-05-27 09:51:00,
2013-05-27 04:56:00,59.5,58.9,29.99,NNW,342,0.1,8.1,98,0.00,OVC,,0.00,0.0,WeatherDisplay:10.37,2013-05-27 09:56:00,
2013-05-27 05:02:00,59.6,59.0,29.98,West,270,0.0,9.0,98,0.02,RA,RA,0.11,0.0,WeatherDisplay:10.37,2013-05-27 10:02:00,
2013-05-27 05:07:00,59.5,58.9,29.94,SSW,207,0.1,1.2,98,0.22,RA,,0.22,0.0,WeatherDisplay:10.37,2013-05-27 10:07:00,
2013-05-27 05:12:00,59.3,58.4,29.93,West,270,2.8,3.5,97,0.24,RA,,0.25,0.0,WeatherDisplay:10.37,2013-05-27 10:12:00,
2013-05-27 05:17:00,59.3,58.7,29.92,ESE,118,0.0,1.2,98,0.26,RA,,0.26,0.0,WeatherDisplay:10.37,2013-05-27 10:17:00,
2013-05-27 05:23:00,59.2,58.6,29.92,SSE,153,0.0,0.0,98,0.28,RA,,0.28,0.0,WeatherDisplay:10.37,2013-05-27 10:23:00,
2013-05-27 05:28:00,59.2,58.6,29.93,NW,316,0.0,1.2,98,0.28,,,0.28,0.0,WeatherDisplay:10.37,2013-05-27 10:28:00,
2013-05-27 05:33:00,59.2,58.6,29.94,NW,316,0.3,0.0,98,0.28,,,0.28,0.0,WeatherDisplay:10.37,2013-05-27 10:33:00,
2013-05-27 05:38:00,59.3,58.7,29.94,NW,316,0.0,0.0,98,0.29,,,0.29,0.0,WeatherDisplay:10.37,2013-05-27 10:38:00,
2013-05-27 05:44:00,59.3,58.7,29.93,NW,316,0.0,0.0,98,0.30,,,0.30,0.0,WeatherDisplay:10.37,2013-05-27 10:44:00,
2013-05-27 05:49:00,59.3,58.7,29.94,NW,314,0.0,0.0,98,0.30,,,0.30,0.0,WeatherDisplay:10.37,2013-05-27 10:49:00,
2013-05-27 05:54:00,59.3,58.7,29.94,NW,313,0.1,3.5,98,0.31,RA,,0.31,0.0,WeatherDisplay:10.37,2013-05-27 10:54:00,
2013-05-27 06:00:00,59.4,58.8,29.93,NW,313,0.0,0.0,98,0.28,RA,,0.32,0.0,WeatherDisplay:10.37,2013-05-27 11:00:00,
2013-05-27 06:05:00,59.4,58.8,29.93,NW,313,0.0,0.0,98,0.13,OVC,,0.32,0.0,WeatherDisplay:10.37,2013-05-27 11:05:00,
2013-05-27 06:10:00,59.5,58.9,29.93,NW,313,0.0,1.2,98,0.10,RA,,0.33,0.0,WeatherDisplay:10.37,2013-05-27 11:10:00,
2013-05-27 06:15:00,59.5,58.9,29.93,NW,313,0.0,0.0,98,0.08,OVC,,0.34,0.0,WeatherDisplay:10.37,2013-05-27 11:15:00,
2013-05-27 06:21:00,59.4,58.8,29.93,NW,313,0.0,0.0,98,0.09,RA,,0.36,0.0,WeatherDisplay:10.37,2013-05-27 11:21:00,
2013-05-27 06:26:00,59.4,58.8,29.93,NW,313,0.0,0.0,98,0.09,RA,,0.37,0.0,WeatherDisplay:10.37,2013-05-27 11:26:00,
2013-05-27 06:31:00,59.4,58.8,29.94,NW,313,0.0,0.0,98,0.11,RA,,0.39,0.0,WeatherDisplay:10.37,2013-05-27 11:31:00,
2013-05-27 06:36:00,59.4,58.8,29.93,NW,313,0.0,0.0,98,0.11,RA,,0.40,0.0,WeatherDisplay:10.37,2013-05-27 11:36:00,
2013-05-27 06:42:00,59.4,58.8,29.93,NW,313,0.0,0.0,98,0.12,RA,,0.42,0.0,WeatherDisplay:10.37,2013-05-27 11:42:00,
2013-05-27 06:47:00,59.4,58.8,29.94,NW,313,0.0,0.0,98,0.01,RA,RA,0.45,0.0,WeatherDisplay:10.37,2013-05-27 11:47:00,
2013-05-27 06:52:00,59.3,58.7,29.94,NW,313,0.0,0.0,98,0.16,RA,,0.47,0.0,WeatherDisplay:10.37,2013-05-27 11:52:00,
2013-05-27 06:57:00,59.3,58.7,29.92,NW,313,0.0,0.0,98,0.18,RA,,0.49,0.0,WeatherDisplay:10.37,2013-05-27 11:57:00,
2013-05-27 07:02:00,59.3,58.7,29.92,NW,313,0.0,0.0,98,0.19,RA,,0.52,0.0,WeatherDisplay:10.37,2013-05-27 12:02:00,
2013-05-27 07:07:00,59.3,58.7,29.92,NW,313,0.0,0.0,98,0.21,RA,,0.54,0.0,WeatherDisplay:10.37,2013-05-27 12:07:00,
2013-05-27 07:13:00,59.4,58.8,29.92,NW,313,0.0,0.0,98,0.22,RA,,0.56,0.0,WeatherDisplay:10.37,2013-05-27 12:13:00,
2013-05-27 07:18:00,59.4,58.8,29.92,NW,313,0.0,0.0,98,0.23,RA,,0.58,0.0,WeatherDisplay:10.37,2013-05-27 12:18:00,
2013-05-27 07:23:00,59.5,58.9,29.92,NW,313,0.0,0.0,98,0.24,RA,,0.60,0.0,WeatherDisplay:10.37,2013-05-27 12:23:00,
2013-05-27 07:28:00,59.5,58.9,29.91,NW,313,0.0,0.0,98,0.24,RA,,0.62,0.0,WeatherDisplay:10.37,2013-05-27 12:28:00,
2013-05-27 07:34:00,59.6,59.0,29.90,SSE,157,0.6,2.3,98,0.25,RA,,0.65,0.0,WeatherDisplay:10.37,2013-05-27 12:34:00,
2013-05-27 07:39:00,59.6,59.0,29.90,SSE,150,0.0,0.0,98,0.27,RA,,0.68,0.0,WeatherDisplay:10.37,2013-05-27 12:39:00,
2013-05-27 07:44:00,59.6,59.0,29.89,SSE,151,0.1,1.0,98,0.27,RA,,0.71,0.0,WeatherDisplay:10.37,2013-05-27 12:44:00,
2013-05-27 07:49:00,59.7,59.1,29.88,SSE,151,0.0,0.0,98,0.28,RA,,0.75,0.0,WeatherDisplay:10.37,2013-05-27 12:49:00,
2013-05-27 07:55:00,59.7,59.1,29.87,SE,138,0.4,2.3,98,0.30,RA,,0.78,0.0,WeatherDisplay:10.37,2013-05-27 12:55:00,
2013-05-27 08:00:00,59.8,59.2,29.87,SSE,164,0.6,4.0,98,0.30,RA,,0.80,0.0,WeatherDisplay:10.37,2013-05-27 13:00:00,
2013-05-27 08:05:00,59.8,59.2,29.86,NE,52,0.3,1.2,98,0.30,-RA,,0.83,0.0,WeatherDisplay:10.37,2013-05-27 13:05:00,
2013-05-27 08:07:00,60.6,60.0,29.69,NNE,13,3.0,12.0,98,0.00,RA,RA,1.02,22.4,WeatherDisplay:10.37,2013-05-27 13:07:00,
2013-05-27 08:10:00,59.8,59.2,29.86,SSE,153,0.2,3.5,98,0.30,-RA,,0.85,7.0,WeatherDisplay:10.37,2013-05-27 13:10:00,
2013-05-27 08:16:00,59.8,59.2,29.86,ESE,117,0.7,3.5,98,0.29,-RA,,0.86,7.0,WeatherDisplay:10.37,2013-05-27 13:16:00,
2013-05-27 08:21:00,59.9,59.3,29.85,SSE,157,1.1,6.0,98,0.29,-RA,,0.88,7.0,WeatherDisplay:10.37,2013-05-27 13:21:00,
2013-05-27 08:26:00,59.9,59.3,29.84,SE,136,1.5,3.0,98,0.29,-RA,,0.90,7.0,WeatherDisplay:10.37,2013-05-27 13:26:00,
2013-05-27 08:31:00,59.9,59.3,29.84,SE,126,0.6,3.5,98,0.28,-RA,,0.92,7.0,WeatherDisplay:10.37,2013-05-27 13:31:00,
2013-05-27 08:37:00,60.0,59.4,29.82,ESE,115,3.0,7.0,98,0.00,-RA,-RA,0.94,9.8,WeatherDisplay:10.37,2013-05-27 13:37:00,
2013-05-27 08:42:00,60.0,59.4,29.79,ESE,118,2.0,6.0,98,0.01,-RA,-RA,0.96,9.8,WeatherDisplay:10.37,2013-05-27 13:42:00,
2013-05-27 08:47:00,60.0,59.4,29.73,SE,128,6.2,16.1,98,0.26,-RA,,0.98,12.6,WeatherDisplay:10.37,2013-05-27 13:47:00,
2013-05-27 09:02:00,60.5,59.9,29.70,ESE,118,14.0,19.0,98,0.17,-RA,,1.02,22.4,WeatherDisplay:10.37,2013-05-27 14:02:00,
2013-05-27 09:13:00,60.9,60.3,29.71,SE,126,5.7,12.7,98,0.14,-RA,,1.02,22.4,WeatherDisplay:10.37,2013-05-27 14:13:00,
2013-05-27 09:18:00,61.0,60.4,29.71,ESE,113,1.3,3.5,98,0.12,-RA,,1.02,26.6,WeatherDisplay:10.37,2013-05-27 14:18:00,
2013-05-27 09:23:00,61.1,60.5,29.73,SE,143,1.3,10.4,98,0.10,-RA,,1.02,29.4,WeatherDisplay:10.37,2013-05-27 14:23:00,
2013-05-27 09:28:00,61.5,60.9,29.72,NNE,27,1.0,11.5,98,0.08,-RA,,1.02,36.4,WeatherDisplay:10.37,2013-05-27 14:28:00,
2013-05-27 09:34:00,61.9,61.0,29.75,SSE,158,0.0,2.3,97,0.06,-RA,,1.02,49.0,WeatherDisplay:10.37,2013-05-27 14:34:00,
2013-05-27 09:39:00,61.9,60.7,29.75,East,92,0.0,0.0,96,0.04,-RA,,1.02,58.8,WeatherDisplay:10.37,2013-05-27 14:39:00,
2013-05-27 09:44:00,61.8,60.6,29.79,West,261,1.7,6.9,96,0.02,-RA,,1.02,58.8,WeatherDisplay:10.37,2013-05-27 14:44:00,
2013-05-27 09:49:00,62.0,60.8,29.80,WSW,252,0.3,3.5,96,0.01,-RA,,1.02,65.8,WeatherDisplay:10.37,2013-05-27 14:49:00,
2013-05-27 09:55:00,62.1,60.9,29.80,West,270,0.7,3.5,96,0.00,-RA,,1.02,65.8,WeatherDisplay:10.37,2013-05-27 14:55:00,
2013-05-27 10:00:00,62.2,60.8,29.81,West,281,0.9,8.1,95,0.00,-RA,,1.02,84.0,WeatherDisplay:10.37,2013-05-27 15:00:00,
2013-05-27 10:05:00,62.2,60.8,29.83,WNW,284,2.3,4.0,95,0.00,OVC,,1.02,88.2,WeatherDisplay:10.37,2013-05-27 15:05:00,
2013-05-27 10:10:00,62.2,60.8,29.83,West,267,0.6,6.9,95,0.00,OVC,,1.02,91.0,WeatherDisplay:10.37,2013-05-27 15:10:00,
2013-05-27 10:16:00,62.3,60.8,29.83,West,274,1.0,5.8,95,0.00,OVC,,1.02,117.6,WeatherDisplay:10.37,2013-05-27 15:16:00,
2013-05-27 10:21:00,62.4,60.9,29.83,West,274,0.0,0.0,95,0.00,OVC,,1.02,145.6,WeatherDisplay:10.37,2013-05-27 15:21:00,
2013-05-27 10:26:00,62.6,61.1,29.82,North,355,1.9,5.8,95,0.00,OVC,,1.02,184.8,WeatherDisplay:10.37,2013-05-27 15:26:00,
2013-05-27 10:31:00,62.9,61.4,29.82,East,83,0.0,0.0,95,0.00,OVC,,1.02,204.4,WeatherDisplay:10.37,2013-05-27 15:31:00,
2013-05-27 10:37:00,63.1,61.7,29.82,ESE,104,0.0,3.0,95,0.00,OVC,OVC,1.02,207.2,WeatherDisplay:10.37,2013-05-27 15:37:00,
2013-05-27 10:42:00,63.4,61.9,29.83,SE,136,0.0,0.0,95,0.00,OVC,OVC,1.02,191.8,WeatherDisplay:10.37,2013-05-27 15:42:00,
2013-05-27 10:47:00,63.6,62.1,29.82,SE,140,0.0,0.0,95,0.00,OVC,OVC,1.02,182.0,WeatherDisplay:10.37,2013-05-27 15:47:00,
2013-05-27 10:52:00,63.7,61.9,29.82,East,99,0.1,0.0,94,0.00,OVC,,1.02,228.2,WeatherDisplay:10.37,2013-05-27 15:52:00,
2013-05-27 10:57:00,63.8,62.0,29.82,South,174,0.4,3.5,94,0.00,OVC,,1.02,268.8,WeatherDisplay:10.37,2013-05-27 15:57:00,
2013-05-27 11:02:00,63.9,62.1,29.81,SSE,155,0.0,0.0,94,0.00,OVC,,1.02,305.2,WeatherDisplay:10.37,2013-05-27 16:02:00,
2013-05-27 11:07:00,64.1,62.0,29.81,SSE,155,0.1,1.2,93,0.00,OVC,,1.02,330.4,WeatherDisplay:10.37,2013-05-27 16:07:00,
2013-05-27 11:13:00,64.3,61.9,29.80,SE,145,0.0,0.0,92,0.00,OVC,,1.02,359.8,WeatherDisplay:10.37,2013-05-27 16:13:00,
2013-05-27 11:18:00,64.5,62.1,29.79,ESE,109,0.1,5.8,92,0.00,OVC,,1.02,396.2,WeatherDisplay:10.37,2013-05-27 16:18:00,
2013-05-27 11:23:00,64.7,62.0,29.76,SE,130,1.4,2.0,91,0.00,OVC,,1.02,435.4,WeatherDisplay:10.37,2013-05-27 16:23:00,
2013-05-27 11:28:00,64.8,62.1,29.73,SE,133,0.0,4.6,91,0.00,OVC,,1.02,399.0,WeatherDisplay:10.37,2013-05-27 16:28:00,
2013-05-27 11:34:00,64.9,62.2,29.74,SSE,151,0.4,3.5,91,0.00,OVC,,1.02,350.0,WeatherDisplay:10.37,2013-05-27 16:34:00,
2013-05-27 11:39:00,64.8,61.8,29.73,South,175,0.0,3.5,90,0.00,OVC,,1.02,350.0,WeatherDisplay:10.37,2013-05-27 16:39:00,
2013-05-27 11:44:00,64.9,61.9,29.71,ESE,106,1.4,4.6,90,0.00,OVC,,1.02,421.4,WeatherDisplay:10.37,2013-05-27 16:44:00,
2013-05-27 11:49:00,65.0,62.0,29.73,ENE,57,0.8,3.5,90,0.00,OVC,,1.02,494.2,WeatherDisplay:10.37,2013-05-27 16:49:00,
2013-05-27 11:55:00,65.2,62.2,29.74,NNE,23,1.2,3.5,90,0.00,OVC,,1.02,536.2,WeatherDisplay:10.37,2013-05-27 16:55:00,
2013-05-27 12:00:00,65.7,63.0,29.75,SSW,213,0.8,2.3,91,0.00,OVC,,1.02,558.6,WeatherDisplay:10.37,2013-05-27 17:00:00,
2013-05-27 12:05:00,66.1,63.1,29.76,SE,134,1.6,2.3,90,0.00,OVC,,1.02,627.2,WeatherDisplay:10.37,2013-05-27 17:05:00,
2013-05-27 12:10:00,66.6,62.9,29.76,North,11,0.8,3.5,88,0.00,OVC,,1.02,679.0,WeatherDisplay:10.37,2013-05-27 17:10:00,
2013-05-27 12:16:00,67.0,63.3,29.78,ESE,113,0.2,2.3,88,0.00,OVC,,1.02,763.0,WeatherDisplay:10.37,2013-05-27 17:16:00,
2013-05-27 12:21:00,67.5,63.5,29.80,NE,47,0.0,0.0,87,0.00,OVC,,1.02,770.0,WeatherDisplay:10.37,2013-05-27 17:21:00,
2013-05-27 12:26:00,68.2,64.2,29.80,NE,47,0.0,0.0,87,0.00,OVC,,1.02,695.8,WeatherDisplay:10.37,2013-05-27 17:26:00,
2013-05-27 12:32:00,68.8,63.8,29.80,NNE,22,0.0,4.6,84,0.00,OVC,,1.02,819.0,WeatherDisplay:10.37,2013-05-27 17:32:00,
2013-05-27 12:37:00,69.2,64.2,29.80,NE,45,0.0,2.0,84,0.00,OVC,OVC,1.02,799.4,WeatherDisplay:10.37,2013-05-27 17:37:00,
2013-05-27 12:42:00,69.4,64.0,29.80,NE,50,0.0,5.0,83,0.00,OVC,OVC,1.02,438.2,WeatherDisplay:10.37,2013-05-27 17:42:00,
2013-05-27 12:47:00,69.8,64.4,29.80,SE,128,1.0,3.0,83,0.00,OVC,,1.02,779.8,WeatherDisplay:10.37,2013-05-27 17:47:00,
2013-05-27 12:52:00,69.9,63.8,29.80,ESE,108,0.1,3.5,81,0.00,OVC,,1.02,597.8,WeatherDisplay:10.37,2013-05-27 17:52:00,
2013-05-27 12:57:00,69.4,63.0,29.81,SE,136,0.0,0.0,80,0.00,OVC,,1.02,282.8,WeatherDisplay:10.37,2013-05-27 17:57:00,
2013-05-27 13:02:00,69.4,63.3,29.81,SE,130,0.1,0.0,81,0.00,OVC,,1.02,256.2,WeatherDisplay:10.37,2013-05-27 18:02:00,
2013-05-27 13:07:00,69.1,63.4,29.81,NNE,15,0.2,0.0,82,0.00,OVC,,1.02,299.6,WeatherDisplay:10.37,2013-05-27 18:07:00,
2013-05-27 13:13:00,68.9,63.5,29.80,NNE,29,0.0,0.0,83,0.00,OVC,,1.02,280.0,WeatherDisplay:10.37,2013-05-27 18:13:00,
2013-05-27 13:18:00,68.6,63.2,29.81,ESE,123,0.0,1.2,83,0.00,OVC,,1.02,217.0,WeatherDisplay:10.37,2013-05-27 18:18:00,
2013-05-27 13:23:00,68.5,63.1,29.81,ENE,63,0.6,2.0,83,0.00,OVC,,1.02,184.8,WeatherDisplay:10.37,2013-05-27 18:23:00,
2013-05-27 13:28:00,68.6,63.9,29.81,ENE,63,0.0,0.0,85,0.00,OVC,,1.02,249.2,WeatherDisplay:10.37,2013-05-27 18:28:00,
2013-05-27 13:34:00,68.6,63.6,29.81,ENE,63,0.0,0.0,84,0.00,OVC,,1.02,268.8,WeatherDisplay:10.37,2013-05-27 18:34:00,
2013-05-27 13:39:00,68.5,63.1,29.81,ENE,63,0.0,0.0,83,0.00,OVC,,1.02,243.6,WeatherDisplay:10.37,2013-05-27 18:39:00,
2013-05-27 13:44:00,68.5,63.5,29.81,ENE,63,0.0,0.0,84,0.00,OVC,,1.02,302.4,WeatherDisplay:10.37,2013-05-27 18:44:00,
2013-05-27 13:49:00,68.6,63.9,29.81,ENE,63,0.0,0.0,85,0.00,OVC,,1.02,561.4,WeatherDisplay:10.37,2013-05-27 18:49:00,
2013-05-27 13:55:00,68.7,63.3,29.81,ENE,63,0.0,0.0,83,0.00,OVC,,1.02,490.0,WeatherDisplay:10.37,2013-05-27 18:55:00,
2013-05-27 14:00:00,69.1,64.1,29.81,NE,56,0.0,0.0,84,0.00,OVC,,1.02,597.8,WeatherDisplay:10.37,2013-05-27 19:00:00,
2013-05-27 14:05:00,69.9,63.4,29.81,NE,56,0.0,0.0,80,0.00,OVC,,1.02,1107.4,WeatherDisplay:10.37,2013-05-27 19:05:00,
2013-05-27 14:10:00,70.4,64.3,29.81,SSE,159,0.0,0.0,81,0.00,OVC,,1.02,1092.0,WeatherDisplay:10.37,2013-05-27 19:10:00,
2013-05-27 14:16:00,70.8,64.7,29.81,ESE,123,0.0,1.2,81,0.00,OVC,,1.02,970.2,WeatherDisplay:10.37,2013-05-27 19:16:00,
2013-05-27 14:21:00,70.6,63.4,29.81,ESE,123,0.0,0.0,78,0.00,OVC,,1.02,610.4,WeatherDisplay:10.37,2013-05-27 19:21:00,
2013-05-27 14:26:00,70.6,63.8,29.81,East,92,0.0,0.0,79,0.00,OVC,,1.02,425.6,WeatherDisplay:10.37,2013-05-27 19:26:00,
2013-05-27 14:31:00,70.5,64.0,29.81,East,92,0.0,0.0,80,0.00,OVC,,1.02,399.0,WeatherDisplay:10.37,2013-05-27 19:31:00,
2013-05-27 14:37:00,70.6,64.5,29.80,East,92,0.0,0.0,81,0.00,OVC,OVC,1.02,460.6,WeatherDisplay:10.37,2013-05-27 19:37:00,
2013-05-27 14:42:00,70.7,63.5,29.80,ESE,111,0.0,3.0,78,0.00,OVC,OVC,1.02,922.6,WeatherDisplay:10.37,2013-05-27 19:42:00,
2013-05-27 14:47:00,72.0,65.5,29.79,SSE,152,0.0,0.0,80,0.00,OVC,OVC,1.02,1055.6,WeatherDisplay:10.37,2013-05-27 19:47:00,
2013-05-27 14:52:00,72.3,63.5,29.79,WNW,295,1.0,3.5,74,0.00,OVC,,1.02,1026.2,WeatherDisplay:10.37,2013-05-27 19:52:00,
2013-05-27 14:57:00,72.3,63.9,29.78,SW,232,0.0,0.0,75,0.00,OVC,,1.02,991.2,WeatherDisplay:10.37,2013-05-27 19:57:00,
2013-05-27 15:02:00,72.8,66.3,29.78,SW,236,0.2,2.0,80,0.00,OVC,,1.02,971.6,WeatherDisplay:10.37,2013-05-27 20:02:00,
2013-05-27 15:08:00,73.0,64.2,29.78,SSW,198,0.7,3.5,74,0.00,OVC,,1.02,896.0,WeatherDisplay:10.37,2013-05-27 20:08:00,
2013-05-27 15:13:00,72.9,64.5,29.77,NE,36,2.0,4.6,75,0.00,OVC,,1.02,581.0,WeatherDisplay:10.37,2013-05-27 20:13:00,
2013-05-27 15:18:00,72.9,62.9,29.76,NNW,340,1.0,3.5,71,0.00,OVC,,1.02,1267.0,WeatherDisplay:10.37,2013-05-27 20:18:00,
2013-05-27 15:23:00,73.0,63.4,29.76,West,269,1.0,3.5,72,0.00,OVC,,1.02,1253.0,WeatherDisplay:10.37,2013-05-27 20:23:00,
2013-05-27 15:29:00,73.7,64.9,29.77,SSW,213,0.0,3.5,74,0.00,OVC,,1.02,1152.2,WeatherDisplay:10.37,2013-05-27 20:29:00,
2013-05-27 15:34:00,74.0,65.6,29.76,West,260,0.0,0.0,75,0.00,OVC,,1.02,1188.6,WeatherDisplay:10.37,2013-05-27 20:34:00,
2013-05-27 15:39:00,74.4,64.8,29.75,WNW,303,1.4,3.5,72,0.00,OVC,,1.02,1026.2,WeatherDisplay:10.37,2013-05-27 20:39:00,
2013-05-27 15:44:00,74.0,64.0,29.75,WNW,294,0.9,4.0,71,0.00,OVC,,1.02,1006.6,WeatherDisplay:10.37,2013-05-27 20:44:00,
2013-05-27 15:50:00,74.2,64.2,29.75,NNW,335,0.4,3.5,71,0.00,OVC,,1.02,1205.4,WeatherDisplay:10.37,2013-05-27 20:50:00,
2013-05-27 15:55:00,74.5,62.8,29.75,West,267,0.0,3.5,67,0.00,OVC,,1.02,1184.4,WeatherDisplay:10.37,2013-05-27 20:55:00,
2013-05-27 16:00:00,73.7,64.1,29.75,NNE,28,1.6,3.5,72,0.00,BKN,,1.02,1156.4,WeatherDisplay:10.37,2013-05-27 21:00:00,
2013-05-27 16:02:00,74.0,63.6,29.74,North,353,0.0,0.0,70,0.00,OVC,OVC,1.02,158.2,WeatherDisplay:10.37,2013-05-27 21:02:00,
2013-05-27 16:05:00,73.8,64.2,29.74,NE,41,1.0,3.5,72,0.00,BKN,,1.02,1058.4,WeatherDisplay:10.37,2013-05-27 21:05:00,
2013-05-27 16:07:00,74.2,63.8,29.74,NW,326,0.0,2.0,70,0.00,OVC,OVC,1.02,149.8,WeatherDisplay:10.37,2013-05-27 21:07:00,
2013-05-27 16:11:00,73.2,65.2,29.75,SE,126,0.9,3.5,76,0.00,BKN,,1.02,984.2,WeatherDisplay:10.37,2013-05-27 21:11:00,
2013-05-27 16:12:00,74.1,63.7,29.75,NW,306,3.0,4.0,70,0.00,SCT,SCT,1.02,187.6,WeatherDisplay:10.37,2013-05-27 21:12:00,
2013-05-27 16:16:00,74.0,64.8,29.74,NNE,26,1.2,3.5,73,0.00,BKN,,1.02,1048.6,WeatherDisplay:10.37,2013-05-27 21:16:00,
2013-05-27 16:21:00,74.1,63.3,29.74,NNE,26,3.7,4.6,69,0.00,BKN,,1.02,1113.0,WeatherDisplay:10.37,2013-05-27 21:21:00,
2013-05-27 16:26:00,74.0,63.6,29.74,ESE,103,0.1,2.3,70,0.00,BKN,,1.02,1113.0,WeatherDisplay:10.37,2013-05-27 21:26:00,
2013-05-27 16:32:00,74.4,65.6,29.75,North,355,0.7,3.0,74,0.00,BKN,,1.02,1092.0,WeatherDisplay:10.37,2013-05-27 21:32:00,
2013-05-27 16:37:00,75.1,64.6,29.75,WNW,292,0.0,4.0,70,0.00,BKN,BKN,1.02,977.2,WeatherDisplay:10.37,2013-05-27 21:37:00,
2013-05-27 16:42:00,74.5,63.3,29.75,NW,320,1.0,4.0,68,0.00,BKN,BKN,1.02,991.2,WeatherDisplay:10.37,2013-05-27 21:42:00,
2013-05-27 16:47:00,74.3,63.8,29.75,North,349,1.0,3.0,70,0.00,BKN,BKN,1.02,588.0,WeatherDisplay:10.37,2013-05-27 21:47:00,
2013-05-27 16:52:00,74.2,63.8,29.74,WNW,285,0.1,1.2,70,0.00,BKN,,1.02,158.2,WeatherDisplay:10.37,2013-05-27 21:52:00,
2013-05-27 16:57:00,74.0,64.0,29.74,NW,305,0.0,0.0,71,0.00,BKN,,1.02,740.6,WeatherDisplay:10.37,2013-05-27 21:57:00,
2013-05-27 17:12:00,74.1,63.3,29.74,WNW,282,4.0,4.0,69,0.00,SCT,,1.02,189.0,WeatherDisplay:10.37,2013-05-27 22:12:00,
2013-05-27 17:18:00,74.0,64.0,29.74,WNW,286,1.5,3.5,71,0.00,SCT,,1.02,191.8,WeatherDisplay:10.37,2013-05-27 22:18:00,
2013-05-27 17:23:00,74.1,64.1,29.75,NNW,335,1.3,3.5,71,0.00,SCT,,1.02,214.2,WeatherDisplay:10.37,2013-05-27 22:23:00,
2013-05-27 17:28:00,74.1,64.1,29.74,NNW,335,0.0,0.0,71,0.00,SCT,,1.02,175.0,WeatherDisplay:10.37,2013-05-27 22:28:00,
2013-05-27 17:33:00,74.0,64.0,29.74,West,277,0.8,2.0,71,0.00,SCT,,1.02,224.0,WeatherDisplay:10.37,2013-05-27 22:33:00,
2013-05-27 17:39:00,74.0,63.6,29.75,WNW,298,1.2,3.5,70,0.00,SCT,,1.02,273.0,WeatherDisplay:10.37,2013-05-27 22:39:00,
2013-05-27 17:44:00,74.1,63.7,29.75,NW,325,1.0,2.3,70,0.00,SCT,,1.02,233.8,WeatherDisplay:10.37,2013-05-27 22:44:00,
2013-05-27 17:49:00,74.0,63.2,29.75,NW,319,0.0,0.0,69,0.00,SCT,,1.02,373.8,WeatherDisplay:10.37,2013-05-27 22:49:00,
2013-05-27 17:54:00,74.2,63.8,29.74,WNW,294,3.0,3.5,70,0.00,SCT,,1.02,240.8,WeatherDisplay:10.37,2013-05-27 22:54:00,
2013-05-27 18:00:00,74.2,63.4,29.74,WNW,302,0.0,3.5,69,0.00,SCT,,1.02,266.0,WeatherDisplay:10.37,2013-05-27 23:00:00,
2013-05-27 18:05:00,74.2,63.8,29.74,WNW,302,0.2,1.2,70,0.00,BKN,,1.02,249.2,WeatherDisplay:10.37,2013-05-27 23:05:00,
2013-05-27 18:10:00,74.2,63.8,29.74,WNW,302,0.3,1.0,70,0.00,BKN,,1.02,221.2,WeatherDisplay:10.37,2013-05-27 23:10:00,
2013-05-27 18:15:00,74.1,64.1,29.74,NNW,336,0.8,0.0,71,0.00,BKN,,1.02,226.8,WeatherDisplay:10.37,2013-05-27 23:15:00,
2013-05-27 18:21:00,74.0,63.6,29.74,NNW,336,0.7,3.5,70,0.00,BKN,,1.02,142.8,WeatherDisplay:10.37,2013-05-27 23:21:00,
2013-05-27 18:26:00,73.8,63.4,29.74,WNW,297,0.0,0.0,70,0.00,BKN,,1.02,120.4,WeatherDisplay:10.37,2013-05-27 23:26:00,
2013-05-27 18:32:00,73.5,63.1,29.75,ENE,73,0.2,1.2,70,0.00,BKN,,1.02,81.2,WeatherDisplay:10.37,2013-05-27 23:32:00,
2013-05-27 18:37:00,73.3,63.7,29.75,NNE,27,0.0,0.0,72,0.00,BKN,BKN,1.02,74.2,WeatherDisplay:10.37,2013-05-27 23:37:00,
2013-05-27 18:42:00,73.1,63.5,29.74,ENE,73,0.0,0.0,72,0.00,BKN,BKN,1.02,78.4,WeatherDisplay:10.37,2013-05-27 23:42:00,
2013-05-27 18:47:00,73.0,63.8,29.74,ENE,73,0.0,0.0,73,0.00,BKN,BKN,1.02,117.6,WeatherDisplay:10.37,2013-05-27 23:47:00,
2013-05-27 18:52:00,72.9,63.3,29.74,ENE,67,0.0,1.2,72,0.00,BKN,,1.02,120.4,WeatherDisplay:10.37,2013-05-27 23:52:00,
2013-05-27 18:57:00,72.8,63.2,29.74,North,10,0.0,1.0,72,0.00,BKN,,1.02,120.4,WeatherDisplay:10.37,2013-05-27 23:57:00,
2013-05-27 19:02:00,72.8,63.2,29.74,NNE,25,0.5,2.0,72,0.00,BKN,,1.02,110.6,WeatherDisplay:10.37,2013-05-28 00:02:00,
2013-05-27 19:08:00,72.8,63.6,29.74,NNE,28,0.0,0.0,73,0.00,BKN,,1.02,123.2,WeatherDisplay:10.37,2013-05-28 00:08:00,
2013-05-27 19:13:00,72.7,63.5,29.74,NNE,29,0.0,0.0,73,0.00,BKN,,1.02,135.8,WeatherDisplay:10.37,2013-05-28 00:13:00,
2013-05-27 19:18:00,72.7,63.5,29.74,NNE,29,0.0,0.0,73,0.00,BKN,,1.02,84.0,WeatherDisplay:10.37,2013-05-28 00:18:00,
2013-05-27 19:23:00,72.7,63.5,29.74,NNE,29,0.0,0.0,73,0.00,BKN,,1.02,58.8,WeatherDisplay:10.37,2013-05-28 00:23:00,
2013-05-27 19:29:00,72.7,63.9,29.74,NNE,28,0.0,0.0,74,0.00,BKN,,1.02,65.8,WeatherDisplay:10.37,2013-05-28 00:29:00,
2013-05-27 19:34:00,72.6,63.8,29.73,NNE,29,0.1,1.2,74,0.00,BKN,,1.02,51.8,WeatherDisplay:10.37,2013-05-28 00:34:00,
2013-05-27 19:39:00,72.3,63.5,29.74,NNE,28,0.0,0.0,74,0.00,BKN,,1.02,51.8,WeatherDisplay:10.37,2013-05-28 00:39:00,
2013-05-27 19:44:00,72.2,63.8,29.74,NNE,28,0.0,0.0,75,0.00,BKN,,1.02,32.2,WeatherDisplay:10.37,2013-05-28 00:44:00,
2013-05-27 19:50:00,72.0,63.6,29.74,NNE,29,0.0,0.0,75,0.00,BKN,,1.02,25.2,WeatherDisplay:10.37,2013-05-28 00:50:00,
2013-05-27 19:55:00,71.9,63.9,29.74,NNE,28,0.0,0.0,76,0.00,BKN,,1.02,15.4,WeatherDisplay:10.37,2013-05-28 00:55:00,
2013-05-27 20:00:00,71.8,64.2,29.74,East,89,0.0,0.0,77,0.00,OVC,,1.02,12.6,WeatherDisplay:10.37,2013-05-28 01:00:00,
2013-05-27 20:05:00,71.6,64.0,29.75,East,89,0.0,0.0,77,0.00,OVC,,1.02,7.0,WeatherDisplay:10.37,2013-05-28 01:05:00,
2013-05-27 20:11:00,71.5,64.3,29.75,East,89,0.0,0.0,78,0.00,OVC,,1.02,0.0,WeatherDisplay:10.37,2013-05-28 01:11:00,
2013-05-27 20:16:00,71.4,64.2,29.75,East,89,0.0,0.0,78,0.00,OVC,,1.02,0.0,WeatherDisplay:10.37,2013-05-28 01:16:00,
2013-05-27 20:21:00,71.2,64.7,29.74,East,89,0.0,0.0,80,0.00,OVC,,1.02,0.0,WeatherDisplay:10.37,2013-05-28 01:21:00,
2013-05-27 20:27:00,71.1,65.0,29.75,East,89,0.0,0.0,81,0.00,OVC,,1.02,0.0,WeatherDisplay:10.37,2013-05-28 01:27:00,
2013-05-27 20:32:00,70.9,64.7,29.75,East,89,0.0,0.0,81,0.00,OVC,OVC,1.02,0.0,WeatherDisplay:10.37,2013-05-28 01:32:00,
2013-05-27 20:37:00,70.7,65.3,29.74,East,89,0.0,0.0,83,0.00,OVC,,1.02,0.0,WeatherDisplay:10.37,2013-05-28 01:37:00,
2013-05-27 20:42:00,70.4,65.0,29.74,East,89,0.0,0.0,83,0.00,OVC,,1.02,0.0,WeatherDisplay:10.37,2013-05-28 01:42:00,
2013-05-27 20:47:00,70.3,64.9,29.74,SSE,153,0.0,0.0,83,0.00,OVC,,1.02,0.0,WeatherDisplay:10.37,2013-05-28 01:47:00,
2013-05-27 20:52:00,70.2,65.1,29.74,SSE,150,0.0,2.3,84,0.00,OVC,,1.02,0.0,WeatherDisplay:10.37,2013-05-28 01:52:00,
2013-05-27 20:58:00,70.2,65.1,29.73,SSE,150,0.0,0.0,84,0.00,OVC,,1.02,0.0,WeatherDisplay:10.37,2013-05-28 01:58:00,
2013-05-27 21:03:00,70.1,65.4,29.73,NE,56,0.5,2.3,85,0.00,OVC,,1.02,0.0,WeatherDisplay:10.37,2013-05-28 02:03:00,
2013-05-27 21:08:00,69.9,65.2,29.73,SE,134,0.0,0.0,85,0.00,OVC,,1.02,0.0,WeatherDisplay:10.37,2013-05-28 02:08:00,
2013-05-27 21:13:00,69.8,65.1,29.73,ESE,111,0.0,1.2,85,0.00,OVC,,1.02,0.0,WeatherDisplay:10.37,2013-05-28 02:13:00,
2013-05-27 21:19:00,69.7,65.0,29.72,NE,49,0.0,1.2,85,0.00,OVC,,1.02,0.0,WeatherDisplay:10.37,2013-05-28 02:19:00,
2013-05-27 21:24:00,69.6,65.2,29.73,NE,49,0.0,0.0,86,0.00,OVC,,1.02,0.0,WeatherDisplay:10.37,2013-05-28 02:24:00,
2013-05-27 21:29:00,69.5,65.1,29.73,NE,49,0.0,0.0,86,0.00,OVC,,1.02,0.0,WeatherDisplay:10.37,2013-05-28 02:29:00,
2013-05-27 21:34:00,69.5,65.1,29.73,NE,49,0.0,0.0,86,0.00,OVC,,1.02,0.0,WeatherDisplay:10.37,2013-05-28 02:34:00,
2013-05-27 21:40:00,69.4,65.0,29.74,NE,49,0.0,0.0,86,0.00,OVC,,1.02,0.0,WeatherDisplay:10.37,2013-05-28 02:40:00,
2013-05-27 21:45:00,69.3,65.3,29.74,NE,49,0.0,0.0,87,0.00,OVC,,1.02,0.0,WeatherDisplay:10.37,2013-05-28 02:45:00,
2013-05-27 21:50:00,69.3,64.9,29.74,ENE,69,0.0,1.2,86,0.00,OVC,,1.02,0.0,WeatherDisplay:10.37,2013-05-28 02:50:00,
2013-05-27 21:55:00,69.2,64.8,29.74,ENE,69,0.0,0.0,86,0.00,OVC,,1.02,0.0,WeatherDisplay:10.37,2013-05-28 02:55:00,
2013-05-27 22:01:00,69.1,65.1,29.74,ENE,69,0.0,0.0,87,0.00,OVC,,1.02,0.0,WeatherDisplay:10.37,2013-05-28 03:01:00,
2013-05-27 22:06:00,69.0,65.0,29.74,ENE,69,0.0,0.0,87,0.00,OVC,,1.02,0.0,WeatherDisplay:10.37,2013-05-28 03:06:00,
2013-05-27 22:11:00,68.9,64.9,29.74,ENE,69,0.0,0.0,87,0.00,OVC,,1.02,0.0,WeatherDisplay:10.37,2013-05-28 03:11:00,
2013-05-27 22:16:00,68.9,64.9,29.74,ENE,69,0.0,0.0,87,0.00,OVC,,1.02,0.0,WeatherDisplay:10.37,2013-05-28 03:16:00,
2013-05-27 22:22:00,68.8,64.8,29.74,ENE,69,0.0,0.0,87,0.00,OVC,OVC,1.02,0.0,WeatherDisplay:10.37,2013-05-28 03:22:00,
2013-05-27 22:27:00,68.7,64.7,29.74,ENE,69,0.0,0.0,87,0.00,OVC,OVC,1.02,0.0,WeatherDisplay:10.37,2013-05-28 03:27:00,
2013-05-27 22:32:00,68.7,64.7,29.74,ENE,69,0.0,0.0,87,0.00,OVC,OVC,1.02,0.0,WeatherDisplay:10.37,2013-05-28 03:32:00,
2013-05-27 22:37:00,68.6,64.6,29.74,East,95,0.0,0.0,87,0.00,OVC,,1.02,0.0,WeatherDisplay:10.37,2013-05-28 03:37:00,
2013-05-27 22:42:00,68.6,64.6,29.75,East,95,0.0,0.0,87,0.00,OVC,,1.02,0.0,WeatherDisplay:10.37,2013-05-28 03:42:00,
2013-05-27 22:47:00,68.5,64.5,29.74,East,90,0.0,0.0,87,0.00,OVC,,1.02,0.0,WeatherDisplay:10.37,2013-05-28 03:47:00,
2013-05-27 22:53:00,68.5,64.5,29.75,East,90,0.0,0.0,87,0.00,OVC,,1.02,0.0,WeatherDisplay:10.37,2013-05-28 03:53:00,
2013-05-27 22:58:00,68.4,64.4,29.74,East,90,0.0,0.0,87,0.00,OVC,,1.02,0.0,WeatherDisplay:10.37,2013-05-28 03:58:00,
2013-05-27 23:01:00,68.4,64.4,29.74,East,90,0.0,0.0,87,0.00,OVC,,1.02,0.0,WeatherDisplay:10.37,2013-05-28 04:01:00,
2013-05-27 23:02:00,68.4,64.4,29.74,East,90,0.0,0.0,87,0.00,OVC,,1.02,0.0,WeatherDisplay:10.37,2013-05-28 04:02:00,
2013-05-27 23:07:00,68.4,64.4,29.74,East,90,0.0,0.0,87,0.00,OVC,,1.02,0.0,WeatherDisplay:10.37,2013-05-28 04:07:00,
2013-05-27 23:13:00,68.4,64.4,29.74,East,90,0.0,0.0,87,0.00,OVC,,1.02,0.0,WeatherDisplay:10.37,2013-05-28 04:13:00,
2013-05-27 23:18:00,68.4,64.4,29.73,East,90,0.0,0.0,87,0.00,OVC,,1.02,0.0,WeatherDisplay:10.37,2013-05-28 04:18:00,
2013-05-27 23:23:00,68.3,64.6,29.73,East,90,0.0,0.0,88,0.00,OVC,,1.02,0.0,WeatherDisplay:10.37,2013-05-28 04:23:00,
2013-05-27 23:28:00,68.3,64.6,29.73,ESE,107,0.0,0.0,88,0.00,OVC,,1.02,0.0,WeatherDisplay:10.37,2013-05-28 04:28:00,
2013-05-27 23:34:00,68.3,64.6,29.73,ESE,107,0.0,0.0,88,0.00,OVC,,1.02,0.0,WeatherDisplay:10.37,2013-05-28 04:34:00,
2013-05-27 23:39:00,68.3,64.6,29.72,ESE,107,0.0,0.0,88,0.00,OVC,,1.02,0.0,WeatherDisplay:10.37,2013-05-28 04:39:00,
2013-05-27 23:44:00,68.2,64.5,29.72,ESE,107,0.0,0.0,88,0.00,OVC,,1.02,0.0,WeatherDisplay:10.37,2013-05-28 04:44:00,
2013-05-27 23:49:00,68.2,64.5,29.72,ESE,107,0.0,0.0,88,0.00,OVC,,1.02,0.0,WeatherDisplay:10.37,2013-05-28 04:49:00,
2013-05-27 23:55:00,68.2,64.5,29.72,ESE,107,0.0,0.0,88,0.00,OVC,,1.03,0.0,WeatherDisplay:10.37,2013-05-28 04:55:00,